sensor_id;sensor_type;location;lat;lon;timestamp;P1;durP1;ratioP1;P2;durP2;ratioP2
8871;SDS011;4472;52.092;9.820;2023-02-11T00:00:41;61.13;;;33.57;;
8871;SDS011;4472;52.092;9.820;2023-02-11T00:03:29;61.60;;;33.07;;
8871;SDS011;4472;52.092;9.820;2023-02-11T00:06:16;59.87;;;34.23;;
8871;SDS011;4472;52.092;9.820;2023-02-11T00:09:04;63.70;;;33.20;;
8871;SDS011;4472;52.092;9.820;2023-02-11T00:11:53;57.00;;;33.43;;
8871;SDS011;4472;52.092;9.820;2023-02-11T00:14:40;58.10;;;34.10;;
8871;SDS011;4472;52.092;9.820;2023-02-11T00:17:28;59.80;;;33.03;;
8871;SDS011;4472;52.092;9.820;2023-02-11T00:20:15;55.37;;;32.47;;
8871;SDS011;4472;52.092;9.820;2023-02-11T00:23:03;55.10;;;32.83;;
8871;SDS011;4472;52.092;9.820;2023-02-11T00:25:50;59.80;;;33.33;;
8871;SDS011;4472;52.092;9.820;2023-02-11T00:28:39;62.40;;;33.67;;
8871;SDS011;4472;52.092;9.820;2023-02-11T00:31:27;56.17;;;33.30;;
8871;SDS011;4472;52.092;9.820;2023-02-11T00:34:14;61.83;;;34.10;;
8871;SDS011;4472;52.092;9.820;2023-02-11T00:37:02;59.40;;;32.07;;
8871;SDS011;4472;52.092;9.820;2023-02-11T00:39:50;63.40;;;33.27;;
8871;SDS011;4472;52.092;9.820;2023-02-11T00:42:37;60.90;;;34.43;;
8871;SDS011;4472;52.092;9.820;2023-02-11T00:45:26;58.47;;;33.80;;
8871;SDS011;4472;52.092;9.820;2023-02-11T00:48:15;64.90;;;34.47;;
8871;SDS011;4472;52.092;9.820;2023-02-11T00:51:02;60.57;;;33.37;;
8871;SDS011;4472;52.092;9.820;2023-02-11T00:53:50;56.97;;;33.93;;
8871;SDS011;4472;52.092;9.820;2023-02-11T00:56:38;57.20;;;34.07;;
8871;SDS011;4472;52.092;9.820;2023-02-11T00:59:25;62.47;;;35.87;;
8871;SDS011;4472;52.092;9.820;2023-02-11T01:02:14;59.90;;;34.60;;
8871;SDS011;4472;52.092;9.820;2023-02-11T01:05:02;62.23;;;34.97;;
8871;SDS011;4472;52.092;9.820;2023-02-11T01:07:49;60.13;;;34.07;;
8871;SDS011;4472;52.092;9.820;2023-02-11T01:10:37;58.57;;;34.27;;
8871;SDS011;4472;52.092;9.820;2023-02-11T01:13:25;61.63;;;34.20;;
8871;SDS011;4472;52.092;9.820;2023-02-11T01:16:13;63.43;;;36.17;;
8871;SDS011;4472;52.092;9.820;2023-02-11T01:19:01;63.37;;;35.13;;
8871;SDS011;4472;52.092;9.820;2023-02-11T01:21:49;60.23;;;34.17;;
8871;SDS011;4472;52.092;9.820;2023-02-11T01:24:36;64.57;;;36.50;;
8871;SDS011;4472;52.092;9.820;2023-02-11T01:27:24;62.93;;;34.90;;
8871;SDS011;4472;52.092;9.820;2023-02-11T01:30:12;72.23;;;37.63;;
8871;SDS011;4472;52.092;9.820;2023-02-11T01:33:00;70.87;;;37.47;;
8871;SDS011;4472;52.092;9.820;2023-02-11T01:35:49;66.40;;;36.37;;
8871;SDS011;4472;52.092;9.820;2023-02-11T01:38:36;58.57;;;35.73;;
8871;SDS011;4472;52.092;9.820;2023-02-11T01:41:25;67.43;;;38.17;;
8871;SDS011;4472;52.092;9.820;2023-02-11T01:44:25;71.17;;;38.40;;
8871;SDS011;4472;52.092;9.820;2023-02-11T01:47:13;67.77;;;37.80;;
8871;SDS011;4472;52.092;9.820;2023-02-11T01:50:01;70.17;;;38.20;;
8871;SDS011;4472;52.092;9.820;2023-02-11T01:52:50;66.37;;;37.57;;
8871;SDS011;4472;52.092;9.820;2023-02-11T01:55:37;68.90;;;38.30;;
8871;SDS011;4472;52.092;9.820;2023-02-11T01:58:43;69.30;;;38.23;;
8871;SDS011;4472;52.092;9.820;2023-02-11T02:01:32;73.47;;;37.23;;
8871;SDS011;4472;52.092;9.820;2023-02-11T02:04:20;71.00;;;40.37;;
8871;SDS011;4472;52.092;9.820;2023-02-11T02:07:13;71.73;;;40.67;;
8871;SDS011;4472;52.092;9.820;2023-02-11T02:10:06;70.23;;;39.17;;
8871;SDS011;4472;52.092;9.820;2023-02-11T02:12:55;72.97;;;38.63;;
8871;SDS011;4472;52.092;9.820;2023-02-11T02:15:44;68.10;;;38.67;;
8871;SDS011;4472;52.092;9.820;2023-02-11T02:18:35;72.60;;;39.37;;
8871;SDS011;4472;52.092;9.820;2023-02-11T02:21:38;75.30;;;40.27;;
8871;SDS011;4472;52.092;9.820;2023-02-11T02:24:37;67.97;;;38.67;;
8871;SDS011;4472;52.092;9.820;2023-02-11T02:27:40;64.17;;;35.93;;
8871;SDS011;4472;52.092;9.820;2023-02-11T02:33:41;60.77;;;33.47;;
8871;SDS011;4472;52.092;9.820;2023-02-11T02:36:31;64.80;;;34.87;;
8871;SDS011;4472;52.092;9.820;2023-02-11T02:39:21;56.83;;;34.17;;
8871;SDS011;4472;52.092;9.820;2023-02-11T02:42:10;57.47;;;33.77;;
8871;SDS011;4472;52.092;9.820;2023-02-11T02:44:58;56.67;;;32.93;;
8871;SDS011;4472;52.092;9.820;2023-02-11T02:47:46;54.90;;;31.77;;
8871;SDS011;4472;52.092;9.820;2023-02-11T02:50:35;59.73;;;33.57;;
8871;SDS011;4472;52.092;9.820;2023-02-11T02:53:25;55.77;;;33.33;;
8871;SDS011;4472;52.092;9.820;2023-02-11T02:56:19;55.40;;;32.73;;
8871;SDS011;4472;52.092;9.820;2023-02-11T02:59:13;57.30;;;32.27;;
8871;SDS011;4472;52.092;9.820;2023-02-11T03:02:07;53.40;;;32.17;;
8871;SDS011;4472;52.092;9.820;2023-02-11T03:04:58;56.57;;;32.23;;
8871;SDS011;4472;52.092;9.820;2023-02-11T03:07:51;53.90;;;33.50;;
8871;SDS011;4472;52.092;9.820;2023-02-11T03:10:41;51.07;;;31.83;;
8871;SDS011;4472;52.092;9.820;2023-02-11T03:13:30;57.17;;;32.97;;
8871;SDS011;4472;52.092;9.820;2023-02-11T03:16:19;57.70;;;33.93;;
8871;SDS011;4472;52.092;9.820;2023-02-11T03:19:09;56.87;;;32.80;;
8871;SDS011;4472;52.092;9.820;2023-02-11T03:21:58;56.40;;;33.50;;
8871;SDS011;4472;52.092;9.820;2023-02-11T03:24:48;58.97;;;35.43;;
8871;SDS011;4472;52.092;9.820;2023-02-11T03:27:38;60.90;;;35.67;;
8871;SDS011;4472;52.092;9.820;2023-02-11T03:30:29;60.80;;;34.60;;
8871;SDS011;4472;52.092;9.820;2023-02-11T03:33:21;69.70;;;34.87;;
8871;SDS011;4472;52.092;9.820;2023-02-11T03:36:11;64.00;;;36.07;;
8871;SDS011;4472;52.092;9.820;2023-02-11T03:39:02;64.93;;;36.10;;
8871;SDS011;4472;52.092;9.820;2023-02-11T03:41:51;68.77;;;36.47;;
8871;SDS011;4472;52.092;9.820;2023-02-11T03:44:43;70.97;;;37.60;;
8871;SDS011;4472;52.092;9.820;2023-02-11T03:47:32;70.80;;;38.50;;
8871;SDS011;4472;52.092;9.820;2023-02-11T03:50:22;73.07;;;38.30;;
8871;SDS011;4472;52.092;9.820;2023-02-11T03:53:10;72.27;;;38.27;;
8871;SDS011;4472;52.092;9.820;2023-02-11T03:55:59;74.47;;;38.47;;
8871;SDS011;4472;52.092;9.820;2023-02-11T03:58:50;78.50;;;39.60;;
8871;SDS011;4472;52.092;9.820;2023-02-11T04:01:38;70.80;;;39.03;;
8871;SDS011;4472;52.092;9.820;2023-02-11T04:04:25;78.53;;;38.60;;
8871;SDS011;4472;52.092;9.820;2023-02-11T04:07:12;67.63;;;37.00;;
8871;SDS011;4472;52.092;9.820;2023-02-11T04:10:00;65.60;;;36.23;;
8871;SDS011;4472;52.092;9.820;2023-02-11T04:12:47;69.63;;;37.50;;
8871;SDS011;4472;52.092;9.820;2023-02-11T04:15:36;66.87;;;36.73;;
8871;SDS011;4472;52.092;9.820;2023-02-11T04:18:24;65.47;;;36.70;;
8871;SDS011;4472;52.092;9.820;2023-02-11T04:21:11;69.37;;;35.97;;
8871;SDS011;4472;52.092;9.820;2023-02-11T04:23:59;61.67;;;35.27;;
8871;SDS011;4472;52.092;9.820;2023-02-11T04:26:49;68.00;;;36.57;;
8871;SDS011;4472;52.092;9.820;2023-02-11T04:29:37;63.33;;;35.23;;
8871;SDS011;4472;52.092;9.820;2023-02-11T04:32:27;63.37;;;36.20;;
8871;SDS011;4472;52.092;9.820;2023-02-11T04:35:15;64.93;;;35.77;;
8871;SDS011;4472;52.092;9.820;2023-02-11T04:38:02;58.60;;;33.90;;
8871;SDS011;4472;52.092;9.820;2023-02-11T04:40:50;54.13;;;33.90;;
8871;SDS011;4472;52.092;9.820;2023-02-11T04:43:38;58.60;;;32.87;;
8871;SDS011;4472;52.092;9.820;2023-02-11T04:46:25;57.47;;;33.80;;
8871;SDS011;4472;52.092;9.820;2023-02-11T04:49:14;58.27;;;33.30;;
8871;SDS011;4472;52.092;9.820;2023-02-11T04:52:02;53.13;;;31.07;;
8871;SDS011;4472;52.092;9.820;2023-02-11T04:54:50;51.27;;;32.80;;
8871;SDS011;4472;52.092;9.820;2023-02-11T04:57:37;52.43;;;32.10;;
8871;SDS011;4472;52.092;9.820;2023-02-11T05:00:25;50.50;;;30.73;;
8871;SDS011;4472;52.092;9.820;2023-02-11T05:03:13;46.13;;;29.97;;
8871;SDS011;4472;52.092;9.820;2023-02-11T05:06:02;47.83;;;30.17;;
8871;SDS011;4472;52.092;9.820;2023-02-11T05:08:49;49.93;;;30.60;;
8871;SDS011;4472;52.092;9.820;2023-02-11T05:11:37;50.33;;;29.90;;
8871;SDS011;4472;52.092;9.820;2023-02-11T05:14:24;50.37;;;30.37;;
8871;SDS011;4472;52.092;9.820;2023-02-11T05:17:12;48.73;;;29.70;;
8871;SDS011;4472;52.092;9.820;2023-02-11T05:19:59;46.80;;;28.63;;
8871;SDS011;4472;52.092;9.820;2023-02-11T05:22:48;43.93;;;28.03;;
8871;SDS011;4472;52.092;9.820;2023-02-11T05:25:36;44.20;;;28.77;;
8871;SDS011;4472;52.092;9.820;2023-02-11T05:28:23;43.60;;;28.23;;
8871;SDS011;4472;52.092;9.820;2023-02-11T05:31:11;48.37;;;29.17;;
8871;SDS011;4472;52.092;9.820;2023-02-11T05:33:59;44.90;;;27.30;;
8871;SDS011;4472;52.092;9.820;2023-02-11T05:36:48;41.50;;;27.10;;
8871;SDS011;4472;52.092;9.820;2023-02-11T05:39:37;45.10;;;28.23;;
8871;SDS011;4472;52.092;9.820;2023-02-11T05:42:24;47.33;;;29.00;;
8871;SDS011;4472;52.092;9.820;2023-02-11T05:45:12;42.70;;;26.37;;
8871;SDS011;4472;52.092;9.820;2023-02-11T05:47:59;46.13;;;29.43;;
8871;SDS011;4472;52.092;9.820;2023-02-11T05:50:47;47.17;;;28.77;;
8871;SDS011;4472;52.092;9.820;2023-02-11T05:53:34;48.83;;;28.90;;
8871;SDS011;4472;52.092;9.820;2023-02-11T05:56:23;49.93;;;30.73;;
8871;SDS011;4472;52.092;9.820;2023-02-11T05:59:11;47.17;;;27.47;;
8871;SDS011;4472;52.092;9.820;2023-02-11T06:01:59;48.87;;;28.13;;
8871;SDS011;4472;52.092;9.820;2023-02-11T06:04:46;49.63;;;30.93;;
8871;SDS011;4472;52.092;9.820;2023-02-11T06:07:34;52.13;;;31.00;;
8871;SDS011;4472;52.092;9.820;2023-02-11T06:10:21;54.30;;;31.20;;
8871;SDS011;4472;52.092;9.820;2023-02-11T06:13:10;51.27;;;31.67;;
8871;SDS011;4472;52.092;9.820;2023-02-11T06:15:59;52.97;;;32.60;;
8871;SDS011;4472;52.092;9.820;2023-02-11T06:18:46;51.13;;;31.70;;
8871;SDS011;4472;52.092;9.820;2023-02-11T06:21:34;55.90;;;33.30;;
8871;SDS011;4472;52.092;9.820;2023-02-11T06:24:21;53.07;;;33.50;;
8871;SDS011;4472;52.092;9.820;2023-02-11T06:27:09;64.27;;;35.13;;
8871;SDS011;4472;52.092;9.820;2023-02-11T06:29:58;57.37;;;34.30;;
8871;SDS011;4472;52.092;9.820;2023-02-11T06:32:45;61.80;;;36.77;;
8871;SDS011;4472;52.092;9.820;2023-02-11T06:35:33;58.83;;;34.03;;
8871;SDS011;4472;52.092;9.820;2023-02-11T06:38:21;64.00;;;34.27;;
8871;SDS011;4472;52.092;9.820;2023-02-11T06:41:08;66.07;;;34.23;;
8871;SDS011;4472;52.092;9.820;2023-02-11T06:43:56;62.17;;;35.13;;
8871;SDS011;4472;52.092;9.820;2023-02-11T06:46:46;66.50;;;36.83;;
8871;SDS011;4472;52.092;9.820;2023-02-11T06:49:33;61.07;;;34.97;;
8871;SDS011;4472;52.092;9.820;2023-02-11T06:52:21;59.67;;;36.50;;
8871;SDS011;4472;52.092;9.820;2023-02-11T06:55:08;63.20;;;37.60;;
8871;SDS011;4472;52.092;9.820;2023-02-11T06:57:56;65.27;;;37.10;;
8871;SDS011;4472;52.092;9.820;2023-02-11T07:00:43;62.33;;;36.50;;
8871;SDS011;4472;52.092;9.820;2023-02-11T07:03:32;67.20;;;37.87;;
8871;SDS011;4472;52.092;9.820;2023-02-11T07:06:21;64.10;;;36.40;;
8871;SDS011;4472;52.092;9.820;2023-02-11T07:09:11;73.73;;;38.80;;
8871;SDS011;4472;52.092;9.820;2023-02-11T07:11:59;70.37;;;39.57;;
8871;SDS011;4472;52.092;9.820;2023-02-11T07:14:46;63.60;;;37.30;;
8871;SDS011;4472;52.092;9.820;2023-02-11T07:17:34;70.67;;;38.50;;
8871;SDS011;4472;52.092;9.820;2023-02-11T07:20:23;67.43;;;38.77;;
8871;SDS011;4472;52.092;9.820;2023-02-11T07:23:11;72.17;;;40.53;;
8871;SDS011;4472;52.092;9.820;2023-02-11T07:26:01;69.57;;;38.53;;
8871;SDS011;4472;52.092;9.820;2023-02-11T07:28:48;73.37;;;40.33;;
8871;SDS011;4472;52.092;9.820;2023-02-11T07:31:36;64.83;;;36.33;;
8871;SDS011;4472;52.092;9.820;2023-02-11T07:34:24;69.87;;;39.07;;
8871;SDS011;4472;52.092;9.820;2023-02-11T07:37:12;71.10;;;40.17;;
8871;SDS011;4472;52.092;9.820;2023-02-11T07:40:00;72.13;;;39.07;;
8871;SDS011;4472;52.092;9.820;2023-02-11T07:42:48;65.80;;;39.03;;
8871;SDS011;4472;52.092;9.820;2023-02-11T07:45:37;68.33;;;38.63;;
8871;SDS011;4472;52.092;9.820;2023-02-11T07:48:24;71.23;;;39.63;;
8871;SDS011;4472;52.092;9.820;2023-02-11T07:51:13;64.87;;;35.23;;
8871;SDS011;4472;52.092;9.820;2023-02-11T07:54:02;73.07;;;39.83;;
8871;SDS011;4472;52.092;9.820;2023-02-11T07:56:50;69.37;;;38.50;;
8871;SDS011;4472;52.092;9.820;2023-02-11T07:59:37;73.47;;;39.60;;
8871;SDS011;4472;52.092;9.820;2023-02-11T08:02:25;68.87;;;40.33;;
8871;SDS011;4472;52.092;9.820;2023-02-11T08:05:12;61.27;;;32.57;;
8871;SDS011;4472;52.092;9.820;2023-02-11T08:08:00;67.53;;;38.63;;
8871;SDS011;4472;52.092;9.820;2023-02-11T08:10:48;76.10;;;39.73;;
8871;SDS011;4472;52.092;9.820;2023-02-11T08:13:36;67.63;;;39.03;;
8871;SDS011;4472;52.092;9.820;2023-02-11T08:16:24;72.17;;;39.50;;
8871;SDS011;4472;52.092;9.820;2023-02-11T08:19:13;64.17;;;37.20;;
8871;SDS011;4472;52.092;9.820;2023-02-11T08:22:08;65.97;;;38.40;;
8871;SDS011;4472;52.092;9.820;2023-02-11T08:24:56;72.60;;;39.43;;
8871;SDS011;4472;52.092;9.820;2023-02-11T08:27:45;68.63;;;38.07;;
8871;SDS011;4472;52.092;9.820;2023-02-11T08:30:33;72.30;;;39.53;;
8871;SDS011;4472;52.092;9.820;2023-02-11T08:33:20;63.17;;;37.37;;
8871;SDS011;4472;52.092;9.820;2023-02-11T08:36:08;60.73;;;36.00;;
8871;SDS011;4472;52.092;9.820;2023-02-11T08:38:56;68.13;;;35.97;;
8871;SDS011;4472;52.092;9.820;2023-02-11T08:41:47;56.47;;;35.70;;
8871;SDS011;4472;52.092;9.820;2023-02-11T08:44:36;68.07;;;37.07;;
8871;SDS011;4472;52.092;9.820;2023-02-11T08:47:23;65.73;;;37.73;;
8871;SDS011;4472;52.092;9.820;2023-02-11T08:50:11;68.57;;;37.07;;
8871;SDS011;4472;52.092;9.820;2023-02-11T08:52:58;66.13;;;34.97;;
8871;SDS011;4472;52.092;9.820;2023-02-11T08:55:49;65.83;;;36.77;;
8871;SDS011;4472;52.092;9.820;2023-02-11T08:58:37;75.00;;;37.87;;
8871;SDS011;4472;52.092;9.820;2023-02-11T09:01:27;67.03;;;36.83;;
8871;SDS011;4472;52.092;9.820;2023-02-11T09:04:15;74.23;;;39.20;;
8871;SDS011;4472;52.092;9.820;2023-02-11T09:07:02;78.80;;;39.83;;
8871;SDS011;4472;52.092;9.820;2023-02-11T09:09:50;65.30;;;37.13;;
8871;SDS011;4472;52.092;9.820;2023-02-11T09:12:37;61.90;;;37.53;;
8871;SDS011;4472;52.092;9.820;2023-02-11T09:15:25;64.50;;;36.43;;
8871;SDS011;4472;52.092;9.820;2023-02-11T09:18:14;63.47;;;37.17;;
8871;SDS011;4472;52.092;9.820;2023-02-11T09:21:01;68.80;;;37.67;;
8871;SDS011;4472;52.092;9.820;2023-02-11T09:23:49;66.03;;;36.63;;
8871;SDS011;4472;52.092;9.820;2023-02-11T09:26:37;71.27;;;38.27;;
8871;SDS011;4472;52.092;9.820;2023-02-11T09:32:32;69.73;;;39.37;;
8871;SDS011;4472;52.092;9.820;2023-02-11T09:35:38;68.33;;;38.37;;
8871;SDS011;4472;52.092;9.820;2023-02-11T09:38:26;79.50;;;38.87;;
8871;SDS011;4472;52.092;9.820;2023-02-11T09:41:24;70.90;;;38.97;;
8871;SDS011;4472;52.092;9.820;2023-02-11T09:44:16;76.40;;;38.37;;
8871;SDS011;4472;52.092;9.820;2023-02-11T09:47:06;68.90;;;38.40;;
8871;SDS011;4472;52.092;9.820;2023-02-11T09:50:12;72.97;;;37.73;;
8871;SDS011;4472;52.092;9.820;2023-02-11T09:53:05;72.40;;;37.93;;
8871;SDS011;4472;52.092;9.820;2023-02-11T09:55:58;65.03;;;36.53;;
8871;SDS011;4472;52.092;9.820;2023-02-11T09:58:46;68.73;;;37.73;;
8871;SDS011;4472;52.092;9.820;2023-02-11T10:01:34;65.40;;;36.67;;
8871;SDS011;4472;52.092;9.820;2023-02-11T12:39:55;43.90;;;27.00;;
8871;SDS011;4472;52.092;9.820;2023-02-11T12:42:50;45.93;;;26.57;;
8871;SDS011;4472;52.092;9.820;2023-02-11T12:46:07;47.00;;;26.53;;
8871;SDS011;4472;52.092;9.820;2023-02-11T12:49:00;47.30;;;26.60;;
8871;SDS011;4472;52.092;9.820;2023-02-11T12:51:54;47.33;;;25.27;;
8871;SDS011;4472;52.092;9.820;2023-02-11T12:54:45;45.43;;;25.90;;
8871;SDS011;4472;52.092;9.820;2023-02-11T12:57:35;49.67;;;28.30;;
8871;SDS011;4472;52.092;9.820;2023-02-11T13:00:24;48.73;;;27.77;;
8871;SDS011;4472;52.092;9.820;2023-02-11T13:03:14;52.67;;;27.80;;
8871;SDS011;4472;52.092;9.820;2023-02-11T13:06:05;50.37;;;28.93;;
8871;SDS011;4472;52.092;9.820;2023-02-11T13:08:57;50.70;;;27.73;;
8871;SDS011;4472;52.092;9.820;2023-02-11T13:11:47;51.27;;;27.83;;
8871;SDS011;4472;52.092;9.820;2023-02-11T13:14:37;51.20;;;28.37;;
8871;SDS011;4472;52.092;9.820;2023-02-11T13:17:26;51.57;;;26.10;;
8871;SDS011;4472;52.092;9.820;2023-02-11T13:20:19;49.63;;;27.83;;
8871;SDS011;4472;52.092;9.820;2023-02-11T13:23:10;48.50;;;27.47;;
8871;SDS011;4472;52.092;9.820;2023-02-11T13:26:01;43.67;;;24.10;;
8871;SDS011;4472;52.092;9.820;2023-02-11T13:28:52;44.87;;;26.97;;
8871;SDS011;4472;52.092;9.820;2023-02-11T13:31:44;45.63;;;26.77;;
8871;SDS011;4472;52.092;9.820;2023-02-11T13:34:55;49.30;;;26.93;;
8871;SDS011;4472;52.092;9.820;2023-02-11T13:37:42;54.20;;;28.00;;
8871;SDS011;4472;52.092;9.820;2023-02-11T13:40:34;51.37;;;28.40;;
8871;SDS011;4472;52.092;9.820;2023-02-11T13:43:22;45.93;;;27.87;;
8871;SDS011;4472;52.092;9.820;2023-02-11T13:46:13;48.10;;;28.07;;
8871;SDS011;4472;52.092;9.820;2023-02-11T13:49:02;47.97;;;26.53;;
8871;SDS011;4472;52.092;9.820;2023-02-11T13:51:50;51.83;;;28.17;;
8871;SDS011;4472;52.092;9.820;2023-02-11T13:54:38;49.53;;;26.80;;
8871;SDS011;4472;52.092;9.820;2023-02-11T13:57:29;55.13;;;28.57;;
8871;SDS011;4472;52.092;9.820;2023-02-11T14:03:35;50.07;;;27.47;;
8871;SDS011;4472;52.092;9.820;2023-02-11T14:06:42;53.43;;;29.70;;
8871;SDS011;4472;52.092;9.820;2023-02-11T14:10:17;52.83;;;28.23;;
8871;SDS011;4472;52.092;9.820;2023-02-11T14:13:25;51.27;;;27.60;;
8871;SDS011;4472;52.092;9.820;2023-02-11T14:16:14;57.00;;;30.70;;
8871;SDS011;4472;52.092;9.820;2023-02-11T14:19:01;62.60;;;31.93;;
8871;SDS011;4472;52.092;9.820;2023-02-11T14:21:50;59.83;;;30.97;;
8871;SDS011;4472;52.092;9.820;2023-02-11T14:24:42;58.40;;;29.60;;
8871;SDS011;4472;52.092;9.820;2023-02-11T14:27:35;53.57;;;28.40;;
8871;SDS011;4472;52.092;9.820;2023-02-11T14:30:41;53.37;;;29.93;;
8871;SDS011;4472;52.092;9.820;2023-02-11T14:33:40;52.87;;;29.00;;
8871;SDS011;4472;52.092;9.820;2023-02-11T14:36:35;50.73;;;25.83;;
8871;SDS011;4472;52.092;9.820;2023-02-11T14:39:33;51.73;;;28.17;;
8871;SDS011;4472;52.092;9.820;2023-02-11T14:42:24;54.87;;;28.50;;
8871;SDS011;4472;52.092;9.820;2023-02-11T14:45:15;61.70;;;29.97;;
8871;SDS011;4472;52.092;9.820;2023-02-11T14:48:05;62.30;;;31.00;;
8871;SDS011;4472;52.092;9.820;2023-02-11T14:50:53;73.03;;;32.47;;
8871;SDS011;4472;52.092;9.820;2023-02-11T14:53:46;58.90;;;32.00;;
8871;SDS011;4472;52.092;9.820;2023-02-11T14:56:36;61.67;;;30.97;;
8871;SDS011;4472;52.092;9.820;2023-02-11T14:59:24;58.23;;;30.40;;
8871;SDS011;4472;52.092;9.820;2023-02-11T15:05:18;60.33;;;30.77;;
8871;SDS011;4472;52.092;9.820;2023-02-11T15:08:06;62.57;;;31.70;;
8871;SDS011;4472;52.092;9.820;2023-02-11T15:11:01;61.40;;;31.17;;
8871;SDS011;4472;52.092;9.820;2023-02-11T15:13:50;56.03;;;30.20;;
8871;SDS011;4472;52.092;9.820;2023-02-11T15:16:39;56.67;;;29.53;;
8871;SDS011;4472;52.092;9.820;2023-02-11T15:19:27;53.53;;;29.27;;
8871;SDS011;4472;52.092;9.820;2023-02-11T15:22:17;59.60;;;30.27;;
8871;SDS011;4472;52.092;9.820;2023-02-11T15:25:08;56.83;;;29.50;;
8871;SDS011;4472;52.092;9.820;2023-02-11T15:27:59;57.40;;;29.37;;
8871;SDS011;4472;52.092;9.820;2023-02-11T15:30:54;57.43;;;30.30;;
8871;SDS011;4472;52.092;9.820;2023-02-11T15:33:42;61.73;;;29.13;;
8871;SDS011;4472;52.092;9.820;2023-02-11T15:36:29;57.47;;;28.43;;
8871;SDS011;4472;52.092;9.820;2023-02-11T15:39:28;58.70;;;29.77;;
8871;SDS011;4472;52.092;9.820;2023-02-11T15:42:21;58.40;;;28.70;;
8871;SDS011;4472;52.092;9.820;2023-02-11T15:45:10;57.27;;;28.37;;
8871;SDS011;4472;52.092;9.820;2023-02-11T15:48:00;64.90;;;35.77;;
8871;SDS011;4472;52.092;9.820;2023-02-11T15:50:51;55.13;;;30.07;;
8871;SDS011;4472;52.092;9.820;2023-02-11T15:53:40;57.73;;;30.07;;
8871;SDS011;4472;52.092;9.820;2023-02-11T15:56:29;60.07;;;27.03;;
8871;SDS011;4472;52.092;9.820;2023-02-11T15:59:18;54.73;;;27.20;;
8871;SDS011;4472;52.092;9.820;2023-02-11T16:02:07;50.47;;;27.83;;
8871;SDS011;4472;52.092;9.820;2023-02-11T16:04:57;55.20;;;29.93;;
8871;SDS011;4472;52.092;9.820;2023-02-11T16:07:45;56.17;;;28.80;;
8871;SDS011;4472;52.092;9.820;2023-02-11T16:10:34;58.03;;;27.77;;
8871;SDS011;4472;52.092;9.820;2023-02-11T16:13:21;56.70;;;27.87;;
8871;SDS011;4472;52.092;9.820;2023-02-11T16:16:15;54.87;;;27.60;;
8871;SDS011;4472;52.092;9.820;2023-02-11T16:19:04;49.97;;;27.27;;
8871;SDS011;4472;52.092;9.820;2023-02-11T16:21:53;48.40;;;26.53;;
8871;SDS011;4472;52.092;9.820;2023-02-11T16:24:41;48.80;;;27.77;;
8871;SDS011;4472;52.092;9.820;2023-02-11T16:27:29;54.57;;;28.17;;
8871;SDS011;4472;52.092;9.820;2023-02-11T16:30:22;59.00;;;27.63;;
8871;SDS011;4472;52.092;9.820;2023-02-11T16:33:10;51.53;;;27.17;;
8871;SDS011;4472;52.092;9.820;2023-02-11T16:35:58;53.17;;;26.97;;
8871;SDS011;4472;52.092;9.820;2023-02-11T16:38:47;56.77;;;28.00;;
8871;SDS011;4472;52.092;9.820;2023-02-11T16:41:35;55.30;;;28.43;;
8871;SDS011;4472;52.092;9.820;2023-02-11T16:44:22;51.97;;;26.80;;
8871;SDS011;4472;52.092;9.820;2023-02-11T16:47:13;55.63;;;27.80;;
8871;SDS011;4472;52.092;9.820;2023-02-11T16:50:04;48.47;;;27.17;;
8871;SDS011;4472;52.092;9.820;2023-02-11T16:52:54;56.23;;;28.10;;
8871;SDS011;4472;52.092;9.820;2023-02-11T16:55:43;46.93;;;26.20;;
8871;SDS011;4472;52.092;9.820;2023-02-11T16:58:30;54.07;;;27.33;;
8871;SDS011;4472;52.092;9.820;2023-02-11T17:01:18;52.20;;;28.23;;
8871;SDS011;4472;52.092;9.820;2023-02-11T17:04:05;55.10;;;28.37;;
8871;SDS011;4472;52.092;9.820;2023-02-11T17:06:56;53.03;;;27.03;;
8871;SDS011;4472;52.092;9.820;2023-02-11T17:09:43;49.20;;;27.83;;
8871;SDS011;4472;52.092;9.820;2023-02-11T17:12:31;54.37;;;28.00;;
8871;SDS011;4472;52.092;9.820;2023-02-11T17:15:18;49.60;;;26.90;;
8871;SDS011;4472;52.092;9.820;2023-02-11T17:18:06;60.33;;;28.03;;
8871;SDS011;4472;52.092;9.820;2023-02-11T17:20:54;54.83;;;27.43;;
8871;SDS011;4472;52.092;9.820;2023-02-11T17:23:42;53.30;;;27.97;;
8871;SDS011;4472;52.092;9.820;2023-02-11T17:26:30;53.90;;;28.17;;
8871;SDS011;4472;52.092;9.820;2023-02-11T17:29:21;51.67;;;28.40;;
8871;SDS011;4472;52.092;9.820;2023-02-11T17:32:09;57.17;;;27.67;;
8871;SDS011;4472;52.092;9.820;2023-02-11T17:34:56;53.67;;;28.77;;
8871;SDS011;4472;52.092;9.820;2023-02-11T17:37:44;53.07;;;29.60;;
8871;SDS011;4472;52.092;9.820;2023-02-11T17:40:31;58.67;;;28.70;;
8871;SDS011;4472;52.092;9.820;2023-02-11T17:43:19;57.67;;;29.70;;
8871;SDS011;4472;52.092;9.820;2023-02-11T17:46:08;50.80;;;28.53;;
8871;SDS011;4472;52.092;9.820;2023-02-11T17:48:56;47.17;;;28.47;;
8871;SDS011;4472;52.092;9.820;2023-02-11T17:51:44;52.23;;;28.47;;
8871;SDS011;4472;52.092;9.820;2023-02-11T17:54:32;58.13;;;30.17;;
8871;SDS011;4472;52.092;9.820;2023-02-11T17:57:19;56.43;;;29.27;;
8871;SDS011;4472;52.092;9.820;2023-02-11T18:00:07;55.60;;;29.70;;
8871;SDS011;4472;52.092;9.820;2023-02-11T18:02:56;54.90;;;28.73;;
8871;SDS011;4472;52.092;9.820;2023-02-11T18:05:47;50.13;;;28.47;;
8871;SDS011;4472;52.092;9.820;2023-02-11T18:08:34;51.90;;;28.37;;
8871;SDS011;4472;52.092;9.820;2023-02-11T18:11:22;56.03;;;28.77;;
8871;SDS011;4472;52.092;9.820;2023-02-11T18:14:10;54.60;;;29.33;;
8871;SDS011;4472;52.092;9.820;2023-02-11T18:16:57;62.73;;;33.20;;
8871;SDS011;4472;52.092;9.820;2023-02-11T18:19:46;57.03;;;32.77;;
8871;SDS011;4472;52.092;9.820;2023-02-11T18:22:34;54.50;;;28.77;;
8871;SDS011;4472;52.092;9.820;2023-02-11T18:25:24;54.83;;;29.57;;
8871;SDS011;4472;52.092;9.820;2023-02-11T18:28:11;58.83;;;28.73;;
8871;SDS011;4472;52.092;9.820;2023-02-11T18:30:59;54.70;;;28.43;;
8871;SDS011;4472;52.092;9.820;2023-02-11T18:33:47;50.90;;;29.27;;
8871;SDS011;4472;52.092;9.820;2023-02-11T18:36:36;49.20;;;27.37;;
8871;SDS011;4472;52.092;9.820;2023-02-11T18:39:23;56.37;;;29.43;;
8871;SDS011;4472;52.092;9.820;2023-02-11T18:42:11;52.40;;;28.80;;
8871;SDS011;4472;52.092;9.820;2023-02-11T18:44:58;50.77;;;27.93;;
8871;SDS011;4472;52.092;9.820;2023-02-11T18:47:46;55.33;;;29.20;;
8871;SDS011;4472;52.092;9.820;2023-02-11T18:50:34;55.67;;;29.63;;
8871;SDS011;4472;52.092;9.820;2023-02-11T18:53:23;54.03;;;29.93;;
8871;SDS011;4472;52.092;9.820;2023-02-11T18:56:11;57.43;;;31.17;;
8871;SDS011;4472;52.092;9.820;2023-02-11T18:58:59;54.40;;;30.73;;
8871;SDS011;4472;52.092;9.820;2023-02-11T19:01:46;55.83;;;30.47;;
8871;SDS011;4472;52.092;9.820;2023-02-11T19:04:35;58.67;;;30.23;;
8871;SDS011;4472;52.092;9.820;2023-02-11T19:07:22;58.80;;;30.47;;
8871;SDS011;4472;52.092;9.820;2023-02-11T19:10:11;59.37;;;29.97;;
8871;SDS011;4472;52.092;9.820;2023-02-11T19:12:59;54.50;;;29.07;;
8871;SDS011;4472;52.092;9.820;2023-02-11T19:15:46;52.87;;;30.80;;
8871;SDS011;4472;52.092;9.820;2023-02-11T19:18:34;61.17;;;31.40;;
8871;SDS011;4472;52.092;9.820;2023-02-11T19:21:23;53.77;;;29.97;;
8871;SDS011;4472;52.092;9.820;2023-02-11T19:24:10;56.90;;;30.20;;
8871;SDS011;4472;52.092;9.820;2023-02-11T19:27:02;52.97;;;29.73;;
8871;SDS011;4472;52.092;9.820;2023-02-11T19:29:49;50.90;;;28.83;;
8871;SDS011;4472;52.092;9.820;2023-02-11T19:32:37;50.30;;;30.03;;
8871;SDS011;4472;52.092;9.820;2023-02-11T19:35:24;53.17;;;29.23;;
8871;SDS011;4472;52.092;9.820;2023-02-11T19:38:12;53.07;;;29.97;;
8871;SDS011;4472;52.092;9.820;2023-02-11T19:41:01;61.40;;;29.63;;
8871;SDS011;4472;52.092;9.820;2023-02-11T19:43:50;56.07;;;29.47;;
8871;SDS011;4472;52.092;9.820;2023-02-11T19:46:38;52.40;;;28.87;;
8871;SDS011;4472;52.092;9.820;2023-02-11T19:49:26;54.77;;;30.40;;